Time;durP1;ratioP1;P1;durP2;ratioP2;P2;SDS_P1;SDS_P2;PMS_P1;PMS_P2;Temp;Humidity;BMP_temperature;BMP_pressure;BME280_temperature;BME280_humidity;BME280_pressure;Samples;Min_cycle;Max_cycle;Signal;HPM_P1;HPM_P2
2024/02/27 00:00:55;;;;;;;2.97;1.60;;;;;;;11.00;90.03;97103.06;5163524;23;20568;-86
2024/02/27 00:02:58;;;;;;;2.70;1.33;;;;;;;10.96;89.32;97117.34;5162082;23;21239;-86
2024/02/27 00:05:02;;;;;;;1.80;1.27;;;;;;;10.91;88.73;97109.06;5162091;23;20576;-86
2024/02/27 00:07:05;;;;;;;2.20;1.20;;;;;;;10.89;89.10;97120.59;5136810;23;20628;-86
2024/02/27 00:09:09;;;;;;;2.10;1.20;;;;;;;10.89;90.92;97116.22;5162114;23;20887;-86
2024/02/27 00:11:14;;;;;;;3.47;1.57;;;;;;;10.92;89.94;97099.47;5161283;23;21150;-86
2024/02/27 00:13:17;;;;;;;2.67;1.50;;;;;;;10.93;90.96;97101.09;5190284;22;20658;-86
2024/02/27 00:15:22;;;;;;;1.77;1.00;;;;;;;10.93;90.08;97112.41;5160319;23;20600;-86
2024/02/27 00:17:25;;;;;;;3.17;1.40;;;;;;;10.96;89.58;97116.50;5160208;23;20565;-86
2024/02/27 00:19:28;;;;;;;2.70;1.90;;;;;;;10.92;89.93;97115.94;5136460;23;20583;-86
2024/02/27 00:21:32;;;;;;;2.13;1.40;;;;;;;10.91;90.08;97111.69;5162879;23;20548;-85
2024/02/27 00:23:36;;;;;;;2.27;1.30;;;;;;;10.90;90.23;97114.44;5162885;23;20580;-87
2024/02/27 00:25:39;;;;;;;2.87;2.07;;;;;;;10.89;90.30;97120.59;5160793;23;20580;-87
2024/02/27 00:27:44;;;;;;;3.80;1.67;;;;;;;10.86;91.06;97121.69;5160827;23;21263;-86
2024/02/27 00:29:47;;;;;;;2.33;1.50;;;;;;;10.87;89.83;97125.97;5136778;23;20605;-87
2024/02/27 00:31:51;;;;;;;2.70;1.60;;;;;;;10.90;90.66;97137.91;5136342;23;20668;-87
2024/02/27 00:33:54;;;;;;;2.70;1.50;;;;;;;10.96;90.79;97142.59;5162966;23;20692;-85
2024/02/27 00:35:58;;;;;;;4.60;1.70;;;;;;;11.01;89.62;97148.25;5161817;23;20604;-86
2024/02/27 00:38:01;;;;;;;3.47;1.77;;;;;;;10.98;90.21;97145.91;5162674;23;20620;-86
2024/02/27 00:40:05;;;;;;;4.10;2.10;;;;;;;10.90;89.63;97157.00;5136885;23;20651;-86
2024/02/27 00:42:07;;;;;;;3.03;1.90;;;;;;;10.86;88.97;97157.38;5188669;22;20619;-86
2024/02/27 00:44:12;;;;;;;5.37;2.70;;;;;;;10.76;90.09;97153.88;5160806;23;21001;-86
2024/02/27 00:46:15;;;;;;;4.83;3.73;;;;;;;10.71;90.06;97157.84;5136273;23;20628;-85
2024/02/27 00:48:17;;;;;;;2.50;1.50;;;;;;;10.60;92.03;97161.34;5187855;22;21050;-82
2024/02/27 00:50:21;;;;;;;2.30;1.30;;;;;;;10.55;92.06;97163.50;5162182;23;20619;-82
2024/02/27 00:52:24;;;;;;;6.77;3.27;;;;;;;10.55;92.62;97171.31;5137686;23;20589;-82
2024/02/27 00:54:27;;;;;;;7.47;5.07;;;;;;;10.51;89.69;97167.31;5160921;23;21123;-83
2024/02/27 00:56:30;;;;;;;7.87;5.00;;;;;;;10.54;89.05;97181.88;5161514;23;20600;-82
2024/02/27 00:58:34;;;;;;;8.33;5.93;;;;;;;10.52;88.25;97178.56;5137525;23;20588;-82
2024/02/27 01:00:39;;;;;;;7.60;5.40;;;;;;;10.46;88.15;97181.69;5161856;23;20571;-83
2024/02/27 01:02:42;;;;;;;7.93;5.83;;;;;;;10.43;87.37;97190.59;5162386;23;20917;-82
2024/02/27 01:04:45;;;;;;;9.37;6.30;;;;;;;10.35;86.51;97195.59;5162141;23;20584;-82
2024/02/27 01:06:49;;;;;;;8.63;6.73;;;;;;;10.35;85.94;97189.56;5162051;23;20592;-82
2024/02/27 01:08:51;;;;;;;10.60;6.93;;;;;;;10.29;85.96;97197.06;5136130;23;21039;-82
2024/02/27 01:10:54;;;;;;;10.80;7.30;;;;;;;10.21;85.22;97196.84;5160282;23;20666;-82
2024/02/27 01:12:57;;;;;;;8.43;6.03;;;;;;;10.20;85.23;97203.03;5188257;22;20960;-83
2024/02/27 01:15:00;;;;;;;9.30;6.63;;;;;;;10.23;85.56;97203.59;5162157;23;21173;-82
2024/02/27 01:17:05;;;;;;;8.10;6.33;;;;;;;10.27;85.21;97205.00;5160939;23;21020;-82
2024/02/27 01:19:08;;;;;;;8.87;6.60;;;;;;;10.31;85.93;97213.38;5161667;23;20560;-84
2024/02/27 01:21:11;;;;;;;9.70;6.20;;;;;;;10.33;85.74;97215.75;5136135;23;20670;-83
2024/02/27 01:23:13;;;;;;;10.20;6.23;;;;;;;10.33;86.34;97215.75;5161805;23;20695;-83
2024/02/27 01:25:17;;;;;;;10.63;7.97;;;;;;;10.32;86.08;97217.66;5187528;22;20582;-82
2024/02/27 01:27:20;;;;;;;9.37;6.70;;;;;;;10.29;85.30;97213.50;5161202;23;20639;-82
2024/02/27 01:29:24;;;;;;;9.03;6.83;;;;;;;10.30;85.05;97220.41;5136212;23;20591;-82
2024/02/27 01:31:27;;;;;;;9.10;6.83;;;;;;;10.26;84.35;97225.97;5161632;23;20580;-82
2024/02/27 01:33:32;;;;;;;9.80;6.80;;;;;;;10.18;84.20;97216.16;5137141;23;20584;-82
2024/02/27 01:35:35;;;;;;;9.40;6.40;;;;;;;10.21;84.11;97215.91;5136680;23;20952;-83
2024/02/27 01:37:41;;;;;;;11.60;6.47;;;;;;;10.22;84.42;97211.53;5160659;23;20576;-82
2024/02/27 01:39:44;;;;;;;10.57;7.50;;;;;;;10.18;83.65;97213.56;5161558;23;20584;-82
2024/02/27 01:41:48;;;;;;;10.67;7.50;;;;;;;10.18;84.03;97205.75;5136416;23;20573;-82
2024/02/27 01:43:52;;;;;;;9.30;6.77;;;;;;;10.13;84.03;97199.25;5186453;22;20575;-82
2024/02/27 01:46:01;;;;;;;9.57;7.50;;;;;;;10.05;83.31;97199.84;5186144;22;20706;-82
2024/02/27 01:48:05;;;;;;;11.37;7.30;;;;;;;10.10;83.43;97192.53;5161193;23;20553;-82
2024/02/27 01:50:12;;;;;;;11.67;7.60;;;;;;;10.08;83.29;97193.59;5136711;23;20577;-82
2024/02/27 01:52:16;;;;;;;10.50;7.53;;;;;;;10.08;83.14;97186.59;5161829;23;20561;-82
2024/02/27 01:54:20;;;;;;;12.10;7.17;;;;;;;10.05;82.87;97186.00;5161643;23;21417;-82
2024/02/27 01:56:24;;;;;;;10.60;7.13;;;;;;;10.02;82.73;97181.88;5160738;23;21285;-82
2024/02/27 01:58:27;;;;;;;8.87;6.43;;;;;;;10.05;83.04;97184.22;5162504;23;20599;-85
2024/02/27 02:00:31;;;;;;;11.37;7.60;;;;;;;10.12;82.82;97187.19;5161996;23;20572;-86
2024/02/27 02:02:34;;;;;;;9.70;7.10;;;;;;;10.16;83.10;97185.97;5137109;23;21171;-86
2024/02/27 02:04:38;;;;;;;10.77;7.83;;;;;;;10.12;81.93;97179.38;5136760;23;20570;-86
2024/02/27 02:06:43;;;;;;;10.53;7.10;;;;;;;10.08;81.29;97177.97;5136361;23;20638;-86
2024/02/27 02:08:46;;;;;;;11.43;7.60;;;;;;;10.09;82.40;97177.03;5189909;22;20979;-86
2024/02/27 02:10:51;;;;;;;11.87;8.27;;;;;;;10.06;82.03;97175.47;5162308;23;20580;-86
2024/02/27 02:12:55;;;;;;;11.40;7.93;;;;;;;10.07;81.94;97187.56;5188979;22;20556;-85
2024/02/27 02:14:58;;;;;;;11.47;7.07;;;;;;;10.08;82.11;97183.97;5188814;22;20173;-86
2024/02/27 02:17:02;;;;;;;12.10;8.43;;;;;;;10.13;82.03;97191.44;5161028;23;20622;-86
2024/02/27 02:19:05;;;;;;;13.10;8.20;;;;;;;10.09;81.60;97192.66;5137378;23;20619;-85
2024/02/27 02:21:09;;;;;;;10.60;7.20;;;;;;;10.07;81.45;97187.56;5161818;23;20951;-85
2024/02/27 02:23:13;;;;;;;10.27;7.17;;;;;;;10.06;80.79;97190.28;5162475;23;20583;-86
2024/02/27 02:25:18;;;;;;;11.20;7.47;;;;;;;10.05;81.07;97184.22;5136935;23;20588;-86
2024/02/27 02:27:23;;;;;;;12.97;8.00;;;;;;;10.07;81.27;97182.34;5136898;23;20573;-85
2024/02/27 02:29:28;;;;;;;13.27;7.80;;;;;;;10.10;81.92;97187.31;5162344;23;20689;-86
2024/02/27 02:31:31;;;;;;;10.40;7.90;;;;;;;10.14;81.63;97185.28;5136644;23;20578;-84
2024/02/27 02:33:35;;;;;;;12.00;7.70;;;;;;;10.16;82.13;97197.22;5161724;23;20581;-86
2024/02/27 02:35:39;;;;;;;10.83;7.73;;;;;;;10.16;81.99;97202.41;5188626;22;21103;-86
2024/02/27 02:37:47;;;;;;;10.10;7.70;;;;;;;10.12;81.98;97202.81;5162182;23;20563;-86
2024/02/27 02:39:50;;;;;;;11.37;7.70;;;;;;;10.15;81.49;97199.94;5161272;23;20705;-86
2024/02/27 02:41:53;;;;;;;12.80;8.00;;;;;;;10.18;81.70;97200.53;5188953;22;20666;-86
2024/02/27 02:43:57;;;;;;;11.63;7.50;;;;;;;10.18;82.85;97203.16;5188600;22;20969;-86
2024/02/27 02:46:00;;;;;;;11.40;7.90;;;;;;;10.18;82.22;97205.75;5160635;23;20612;-85
2024/02/27 02:48:04;;;;;;;11.00;7.57;;;;;;;10.12;82.77;97206.25;5162489;23;20630;-85
2024/02/27 02:50:09;;;;;;;10.80;8.30;;;;;;;10.08;83.31;97207.44;5162062;23;20668;-86
2024/02/27 02:52:12;;;;;;;11.70;7.90;;;;;;;10.06;83.20;97216.34;5137022;23;20664;-86
2024/02/27 02:54:17;;;;;;;12.93;8.03;;;;;;;10.09;83.64;97214.31;5162486;23;20588;-86
2024/02/27 02:56:20;;;;;;;12.43;8.20;;;;;;;10.07;83.34;97223.19;5187314;22;21365;-85
2024/02/27 02:58:22;;;;;;;11.97;8.33;;;;;;;10.09;82.82;97222.13;5134875;23;20580;-85
2024/02/27 03:00:26;;;;;;;12.73;8.20;;;;;;;10.06;82.70;97226.75;5135916;23;20585;-85
2024/02/27 03:02:30;;;;;;;12.93;7.90;;;;;;;10.04;82.33;97231.25;5161407;23;20575;-85
2024/02/27 03:04:34;;;;;;;12.90;8.40;;;;;;;10.00;81.34;97230.66;5161361;23;20576;-86
2024/02/27 03:06:37;;;;;;;14.40;10.40;;;;;;;9.91;80.58;97239.19;5188097;22;20587;-86
2024/02/27 03:08:39;;;;;;;14.00;9.00;;;;;;;9.93;80.74;97236.44;5161605;23;20935;-86
2024/02/27 03:10:44;;;;;;;13.10;8.30;;;;;;;9.97;81.00;97241.31;5188117;22;20576;-85
2024/02/27 03:12:47;;;;;;;15.77;8.40;;;;;;;9.99;81.48;97246.41;5161448;23;20912;-86
2024/02/27 03:14:50;;;;;;;11.30;7.50;;;;;;;9.99;81.62;97247.22;5160650;23;21127;-85
2024/02/27 03:16:54;;;;;;;12.73;8.77;;;;;;;9.97;80.77;97253.53;5186766;22;20608;-86
2024/02/27 03:18:57;;;;;;;13.67;9.37;;;;;;;9.97;81.42;97246.53;5162223;23;20588;-86
2024/02/27 03:21:00;;;;;;;12.77;8.67;;;;;;;10.00;81.43;97253.28;5162474;23;20604;-86
2024/02/27 03:23:04;;;;;;;14.80;8.90;;;;;;;10.00;81.48;97256.72;5137162;23;20632;-85
2024/02/27 03:25:08;;;;;;;13.10;9.37;;;;;;;10.02;81.41;97254.81;5187624;22;20917;-86
2024/02/27 03:27:13;;;;;;;13.77;8.80;;;;;;;10.02;81.13;97251.38;5188077;22;20547;-86
2024/02/27 03:29:16;;;;;;;12.57;9.03;;;;;;;9.99;81.66;97257.66;5162477;23;20605;-86
2024/02/27 03:31:20;;;;;;;18.43;9.67;;;;;;;9.98;81.48;97250.81;5133090;23;21201;-86
2024/02/27 03:33:23;;;;;;;13.87;9.57;;;;;;;9.97;81.43;97256.97;5162466;23;21143;-86
2024/02/27 03:35:26;;;;;;;16.23;9.77;;;;;;;9.97;81.44;97256.97;5188244;22;20582;-87
2024/02/27 03:37:29;;;;;;;14.20;9.63;;;;;;;9.97;81.65;97263.94;5160500;23;20671;-85
2024/02/27 03:39:33;;;;;;;14.90;9.40;;;;;;;9.98;81.63;97265.59;5188019;22;20900;-85
2024/02/27 03:41:36;;;;;;;14.43;8.60;;;;;;;9.99;81.71;97265.47;5160677;23;20575;-85
2024/02/27 03:43:40;;;;;;;13.70;9.50;;;;;;;9.97;81.82;97263.94;5188346;22;21200;-85
2024/02/27 03:45:43;;;;;;;14.00;9.30;;;;;;;9.98;81.81;97271.66;5187624;22;20669;-85
2024/02/27 03:47:48;;;;;;;13.90;10.30;;;;;;;10.01;81.75;97280.97;5135424;23;20592;-85
2024/02/27 03:49:52;;;;;;;12.30;8.90;;;;;;;10.02;82.26;97277.44;5136207;23;20601;-86
2024/02/27 03:51:55;;;;;;;13.90;9.67;;;;;;;10.03;82.24;97274.69;5188452;22;20575;-85
2024/02/27 03:53:58;;;;;;;13.00;8.97;;;;;;;10.02;81.75;97277.44;5161408;23;20616;-85
2024/02/27 03:56:01;;;;;;;15.80;9.53;;;;;;;9.97;82.47;97283.00;5136410;23;20795;-86
2024/02/27 03:58:04;;;;;;;15.87;9.43;;;;;;;9.87;81.14;97283.81;5161520;23;21435;-86
2024/02/27 04:00:11;;;;;;;12.97;8.77;;;;;;;9.79;81.89;97285.34;5136489;23;20595;-85
2024/02/27 04:02:13;;;;;;;11.50;8.93;;;;;;;9.84;82.15;97291.84;5136393;23;20684;-86
2024/02/27 04:04:17;;;;;;;12.60;8.73;;;;;;;9.88;82.70;97294.09;5162699;23;20583;-86
2024/02/27 04:06:20;;;;;;;11.00;7.83;;;;;;;9.92;82.94;97303.34;5189821;22;20603;-86
2024/02/27 04:08:24;;;;;;;14.77;10.00;;;;;;;9.91;82.27;97303.47;5138219;23;20635;-87
2024/02/27 04:10:27;;;;;;;14.13;10.10;;;;;;;9.86;82.23;97309.03;5163899;23;20591;-86
2024/02/27 04:12:31;;;;;;;13.93;9.43;;;;;;;9.87;82.24;97315.88;5163208;23;20690;-86
2024/02/27 04:14:34;;;;;;;15.07;10.13;;;;;;;9.85;82.09;97317.78;5138302;23;20624;-85
2024/02/27 04:16:39;;;;;;;15.70;10.77;;;;;;;9.80;82.21;97313.06;5162068;23;20962;-85
2024/02/27 04:18:43;;;;;;;14.97;10.50;;;;;;;9.72;81.53;97311.03;5163969;23;21064;-86
2024/02/27 04:20:46;;;;;;;15.20;10.40;;;;;;;9.76;81.99;97316.81;5163488;23;20584;-86
2024/02/27 04:22:49;;;;;;;15.37;10.03;;;;;;;9.75;82.03;97316.00;5164173;23;20610;-85
2024/02/27 04:24:51;;;;;;;14.40;9.77;;;;;;;9.75;82.18;97315.19;5162875;23;20575;-86
2024/02/27 04:26:54;;;;;;;16.20;10.90;;;;;;;9.77;82.40;97308.06;5189613;22;20677;-86
2024/02/27 04:28:58;;;;;;;14.13;10.47;;;;;;;9.78;82.59;97305.34;5162593;23;20675;-86
2024/02/27 04:31:01;;;;;;;20.07;11.37;;;;;;;9.78;82.79;97300.16;5189851;22;20632;-85
2024/02/27 04:33:06;;;;;;;16.33;10.50;;;;;;;9.81;82.53;97309.50;5161561;23;21264;-86
2024/02/27 04:35:09;;;;;;;17.27;10.30;;;;;;;9.84;82.52;97319.69;5162905;23;20931;-85
2024/02/27 04:37:13;;;;;;;20.77;12.40;;;;;;;9.84;81.93;97318.72;5162117;23;20604;-85
2024/02/27 04:39:16;;;;;;;17.73;11.37;;;;;;;9.78;81.77;97320.16;5136851;23;20577;-85
2024/02/27 04:41:20;;;;;;;17.77;11.50;;;;;;;9.70;81.51;97319.94;5137509;23;21282;-86
2024/02/27 04:43:24;;;;;;;17.10;11.70;;;;;;;9.63;82.25;97316.13;5138104;23;20669;-85
2024/02/27 04:45:26;;;;;;;15.97;10.70;;;;;;;9.57;82.06;97312.22;5137317;23;21156;-86
2024/02/27 04:47:29;;;;;;;14.47;10.40;;;;;;;9.66;82.17;97326.31;5162652;23;21141;-86
2024/02/27 04:49:34;;;;;;;16.77;10.90;;;;;;;9.55;82.21;97328.91;5138818;23;20593;-85
2024/02/27 04:51:36;;;;;;;17.23;11.53;;;;;;;9.60;83.00;97332.81;5163321;23;20572;-86
2024/02/27 04:53:40;;;;;;;16.03;11.30;;;;;;;9.59;82.98;97338.97;5162419;23;20591;-86
2024/02/27 04:55:43;;;;;;;15.10;10.60;;;;;;;9.61;83.19;97349.28;5162096;23;21100;-86
2024/02/27 04:57:45;;;;;;;18.63;12.20;;;;;;;9.58;83.30;97345.13;5136442;23;20706;-85
2024/02/27 04:59:48;;;;;;;17.10;12.03;;;;;;;9.53;82.09;97336.84;5189639;22;20606;-85
2024/02/27 05:01:51;;;;;;;18.50;12.20;;;;;;;9.51;82.29;97343.09;5162365;23;20584;-86
2024/02/27 05:03:56;;;;;;;18.53;11.23;;;;;;;9.56;83.39;97351.38;5137494;23;20585;-86
2024/02/27 05:06:01;;;;;;;17.45;12.45;;;;;;;9.61;83.33;97354.47;5162694;23;20627;-85
2024/02/27 05:08:05;;;;;;;17.93;12.97;;;;;;;9.65;82.40;97361.94;5136769;23;20642;-86
2024/02/27 05:10:08;;;;;;;18.73;13.03;;;;;;;9.67;83.04;97359.22;5189375;22;21122;-85
2024/02/27 05:12:11;;;;;;;18.67;12.03;;;;;;;9.68;82.90;97360.84;5137365;23;20645;-85
2024/02/27 05:14:14;;;;;;;23.07;13.10;;;;;;;9.59;83.99;97356.34;5188754;22;20580;-86
2024/02/27 05:16:17;;;;;;;18.47;12.70;;;;;;;9.37;82.92;97355.47;5135585;23;20585;-85
2024/02/27 05:18:20;;;;;;;24.00;12.23;;;;;;;9.40;83.59;97361.31;5160880;23;21184;-85
2024/02/27 05:20:23;;;;;;;17.95;12.63;;;;;;;9.44;82.62;97357.50;5137032;23;20948;-86
2024/02/27 05:22:31;;;;;;;17.52;12.32;;;;;;;9.46;83.32;97355.63;5163120;23;20169;-86
2024/02/27 05:24:34;;;;;;;19.30;13.00;;;;;;;9.49;82.79;97365.81;5136896;23;20178;-85
2024/02/27 05:26:37;;;;;;;18.43;13.20;;;;;;;9.49;82.64;97365.81;5162812;23;20588;-86
2024/02/27 05:28:41;;;;;;;19.05;13.57;;;;;;;9.47;83.04;97367.69;5160552;23;20580;-83
2024/02/27 05:30:44;;;;;;;17.10;12.25;;;;;;;9.45;83.20;97361.78;5137196;23;20174;-83
2024/02/27 05:32:47;;;;;;;21.00;12.97;;;;;;;9.42;82.15;97375.84;5138021;23;20205;-83
2024/02/27 05:34:51;;;;;;;21.43;14.60;;;;;;;9.40;82.91;97377.75;5163369;23;21063;-83
2024/02/27 05:36:54;;;;;;;19.73;13.03;;;;;;;9.39;83.10;97375.25;5161599;23;20584;-83
2024/02/27 05:38:58;;;;;;;19.13;12.57;;;;;;;9.43;82.93;97381.91;5163159;23;20663;-83
2024/02/27 05:41:02;;;;;;;18.37;12.33;;;;;;;9.46;82.82;97389.47;5137416;23;20708;-84
2024/02/27 05:43:05;;;;;;;20.17;13.83;;;;;;;9.45;83.47;97390.41;5136024;23;20587;-81
2024/02/27 05:45:08;;;;;;;19.80;13.40;;;;;;;9.41;82.79;97379.41;5188728;22;20595;-80
2024/02/27 05:47:11;;;;;;;19.87;12.83;;;;;;;9.42;82.67;97385.44;5161252;23;20594;-80
2024/02/27 05:49:15;;;;;;;19.97;13.30;;;;;;;9.45;82.48;97395.59;5162993;23;20576;-80
2024/02/27 05:51:20;;;;;;;19.33;12.93;;;;;;;9.47;82.84;97394.56;5160531;23;20905;-82
2024/02/27 05:53:24;;;;;;;19.33;13.73;;;;;;;9.45;82.45;97409.44;5137302;23;20577;-82
2024/02/27 05:55:30;;;;;;;18.70;13.17;;;;;;;9.44;83.33;97399.16;5162075;23;20691;-82
2024/02/27 05:57:34;;;;;;;21.27;14.37;;;;;;;9.38;81.99;97410.00;5162414;23;20568;-82
2024/02/27 05:59:37;;;;;;;19.50;13.07;;;;;;;9.39;82.61;97412.50;5162329;23;20619;-81
2024/02/27 06:01:40;;;;;;;19.65;13.25;;;;;;;9.41;83.86;97423.66;5189668;22;21095;-83
2024/02/27 06:03:44;;;;;;;18.37;12.90;;;;;;;9.46;83.21;97423.31;5162537;23;20228;-81
2024/02/27 06:05:48;;;;;;;20.17;12.90;;;;;;;9.49;83.18;97416.09;5136766;23;20619;-82
2024/02/27 06:07:52;;;;;;;19.87;13.30;;;;;;;9.50;83.21;97430.78;5137897;23;21208;-82
2024/02/27 06:09:55;;;;;;;20.90;14.07;;;;;;;9.51;82.68;97426.38;5138196;23;20581;-83
2024/02/27 06:12:00;;;;;;;21.43;14.20;;;;;;;9.53;82.85;97434.91;5188674;22;20611;-82
2024/02/27 06:14:03;;;;;;;20.50;14.50;;;;;;;9.48;82.73;97437.84;5160620;23;20962;-82
2024/02/27 06:16:08;;;;;;;21.60;14.57;;;;;;;9.48;83.29;97434.41;5135928;23;20573;-81
2024/02/27 06:18:13;;;;;;;19.93;13.70;;;;;;;9.47;83.20;97437.94;5160675;23;20624;-82
2024/02/27 06:22:34;;;;;;;22.93;13.97;;;;;;;9.39;83.11;97437.69;5159737;23;20740;-83
2024/02/27 06:24:36;;;;;;;20.27;14.03;;;;;;;9.26;82.77;97446.53;5163207;23;20587;-83
2024/02/27 06:26:39;;;;;;;20.63;13.25;;;;;;;9.29;83.43;97449.75;5135783;23;20676;-83
2024/02/27 06:28:44;;;;;;;22.20;14.50;;;;;;;9.24;84.57;97451.84;5163791;23;20177;-83
2024/02/27 06:30:48;;;;;;;23.13;14.87;;;;;;;9.27;83.25;97443.81;5137308;23;20176;-81
2024/02/27 06:32:52;;;;;;;22.63;15.10;;;;;;;9.30;83.25;97448.78;5162815;23;20599;-84
2024/02/27 06:34:55;;;;;;;20.30;14.30;;;;;;;9.30;83.29;97454.00;5137536;23;20197;-84
2024/02/27 06:37:01;;;;;;;18.13;13.70;;;;;;;9.35;83.37;97462.31;5161303;23;20683;-83
2024/02/27 06:39:04;;;;;;;19.60;14.13;;;;;;;9.36;83.44;97461.34;5163317;23;20201;-87
2024/02/27 06:41:08;;;;;;;20.47;14.33;;;;;;;9.36;83.85;97470.94;5138005;23;20635;-88
2024/02/27 06:43:12;;;;;;;22.67;13.93;;;;;;;9.36;83.67;97476.97;5188732;22;20614;-85
2024/02/27 06:45:17;;;;;;;19.55;14.52;;;;;;;9.39;83.56;97484.53;5189258;22;20183;-87
2024/02/27 06:47:21;;;;;;;23.95;15.15;;;;;;;9.46;84.13;97488.38;5158664;23;20228;-86
2024/02/27 06:49:25;;;;;;;21.15;15.18;;;;;;;9.50;83.69;97493.22;5162970;23;20174;-86
2024/02/27 06:51:29;;;;;;;24.10;16.40;;;;;;;9.55;84.21;97492.91;5162584;23;20192;-86
2024/02/27 06:53:33;;;;;;;21.60;14.47;;;;;;;9.58;84.77;97493.50;5136482;23;20592;-87
2024/02/27 06:55:35;;;;;;;20.83;14.30;;;;;;;9.62;84.02;97496.69;5135934;23;20577;-86
2024/02/27 06:57:38;;;;;;;20.50;13.63;;;;;;;9.65;83.98;97505.13;5161484;23;21143;-86
2024/02/27 06:59:41;;;;;;;23.40;14.37;;;;;;;9.66;83.62;97495.53;5162649;23;20646;-86
2024/02/27 07:01:46;;;;;;;20.77;13.83;;;;;;;9.70;83.44;97500.41;5162709;23;21202;-86
2024/02/27 07:03:49;;;;;;;23.87;15.00;;;;;;;9.67;84.09;97499.81;5162370;23;20938;-86
2024/02/27 07:05:53;;;;;;;20.90;13.87;;;;;;;9.64;83.39;97505.22;5136605;23;20605;-86
2024/02/27 07:07:56;;;;;;;22.80;14.80;;;;;;;9.58;83.71;97506.50;5162414;23;20580;-86
2024/02/27 07:10:00;;;;;;;22.33;14.13;;;;;;;9.54;83.72;97506.84;5163228;23;20568;-86
2024/02/27 07:12:04;;;;;;;23.15;15.48;;;;;;;9.57;83.59;97512.66;5162567;23;20576;-86
2024/02/27 07:14:07;;;;;;;24.23;14.20;;;;;;;9.56;83.80;97511.00;5134553;23;20589;-87
2024/02/27 07:16:11;;;;;;;20.70;14.20;;;;;;;9.51;83.98;97501.88;5160828;23;20607;-86
2024/02/27 07:18:16;;;;;;;22.03;14.23;;;;;;;9.51;83.90;97513.09;5162012;23;20581;-87
2024/02/27 07:20:20;;;;;;;21.90;14.27;;;;;;;9.51;83.92;97505.28;5137238;23;21019;-86
2024/02/27 07:22:23;;;;;;;32.92;22.63;;;;;;;9.54;84.14;97496.44;5134682;23;21226;-86
2024/02/27 07:24:26;;;;;;;22.23;15.52;;;;;;;9.54;84.50;97507.66;5136151;23;20174;-86
2024/02/27 07:26:28;;;;;;;22.23;14.65;;;;;;;9.56;84.14;97510.16;5135863;23;20292;-87
2024/02/27 07:28:32;;;;;;;21.60;14.50;;;;;;;9.56;84.68;97507.53;5136568;23;20208;-86
2024/02/27 07:30:36;;;;;;;20.53;14.00;;;;;;;9.59;84.50;97504.72;5137782;23;20590;-87
2024/02/27 07:32:39;;;;;;;23.60;15.73;;;;;;;9.61;84.77;97515.88;5136607;23;20569;-86
2024/02/27 07:34:46;;;;;;;25.33;15.00;;;;;;;9.45;84.34;97515.31;5136536;23;20573;-86
2024/02/27 07:36:49;;;;;;;25.00;16.17;;;;;;;9.37;84.45;97522.88;5160146;23;20635;-86
2024/02/27 07:38:53;;;;;;;23.20;14.90;;;;;;;9.32;85.50;97524.13;5137696;23;20262;-86
2024/02/27 07:40:56;;;;;;;25.80;16.23;;;;;;;9.37;85.30;97527.22;5138802;23;20623;-86
2024/02/27 07:42:59;;;;;;;22.83;15.10;;;;;;;9.43;85.72;97532.84;5163764;23;21327;-87
2024/02/27 07:45:05;;;;;;;22.70;15.77;;;;;;;9.40;85.73;97533.06;5162366;23;21008;-86
2024/02/27 07:47:08;;;;;;;21.87;14.70;;;;;;;9.37;85.65;97538.47;5135556;23;20941;-86
2024/02/27 07:49:12;;;;;;;20.27;13.83;;;;;;;9.37;85.54;97533.28;5164168;23;20552;-84
2024/02/27 07:51:27;;;;;;;20.33;13.43;;;;;;;9.46;84.95;97528.22;5190897;22;21285;-83
2024/02/27 07:53:31;;;;;;;24.38;14.02;;;;;;;9.39;85.57;97531.38;5138184;23;20660;-84
2024/02/27 07:55:33;;;;;;;22.33;15.02;;;;;;;9.30;85.43;97531.22;5190234;22;20239;-83
2024/02/27 07:57:36;;;;;;;25.80;14.90;;;;;;;9.26;85.68;97529.78;5138138;23;20807;-83
2024/02/27 07:59:40;;;;;;;22.60;15.13;;;;;;;9.27;86.65;97527.06;5189916;22;20606;-83
2024/02/27 08:01:44;;;;;;;27.10;15.27;;;;;;;9.31;86.16;97532.91;5138645;23;20651;-83
2024/02/27 08:03:47;;;;;;;24.50;16.23;;;;;;;9.32;86.42;97529.34;5163586;23;20280;-83
2024/02/27 08:05:50;;;;;;;19.80;14.23;;;;;;;9.38;85.60;97530.56;5137470;23;20615;-83
2024/02/27 08:07:55;;;;;;;22.77;14.63;;;;;;;9.45;85.88;97539.56;5189717;22;20674;-83
2024/02/27 08:09:58;;;;;;;22.67;14.93;;;;;;;9.46;86.44;97532.59;5138777;23;20182;-83
2024/02/27 08:12:02;;;;;;;21.03;14.20;;;;;;;9.44;85.91;97539.69;5138317;23;20240;-83
2024/02/27 08:14:05;;;;;;;24.97;15.07;;;;;;;9.44;86.08;97539.69;5137700;23;20582;-83
2024/02/27 08:16:10;;;;;;;22.17;14.75;;;;;;;9.48;85.87;97548.94;5162228;23;20951;-83
2024/02/27 08:18:13;;;;;;;24.02;15.77;;;;;;;9.36;85.56;97551.59;5138171;23;20201;-84
2024/02/27 08:20:15;;;;;;;22.98;15.93;;;;;;;9.27;86.48;97547.06;5138115;23;20198;-84
2024/02/27 08:22:19;;;;;;;24.58;16.25;;;;;;;9.31;86.51;97546.72;5161845;23;20209;-84
2024/02/27 08:24:23;;;;;;;21.80;15.40;;;;;;;9.44;86.61;97557.88;5136222;23;20171;-84
2024/02/27 08:26:27;;;;;;;22.90;15.17;;;;;;;9.43;86.59;97559.69;5136517;23;20581;-84
2024/02/27 08:28:30;;;;;;;24.75;16.35;;;;;;;9.39;86.39;97553.03;5135888;23;20576;-84
2024/02/27 08:30:36;;;;;;;24.55;15.95;;;;;;;9.37;86.56;97561.91;5162914;23;20227;-84
2024/02/27 08:32:39;;;;;;;23.33;15.73;;;;;;;9.33;86.63;97565.66;5138886;23;20170;-84
2024/02/27 08:34:42;;;;;;;23.70;14.63;;;;;;;9.35;86.87;97558.59;5163337;23;20184;-84
2024/02/27 08:36:45;;;;;;;22.67;16.00;;;;;;;9.36;87.00;97569.81;5136688;23;20578;-84
2024/02/27 08:38:48;;;;;;;25.52;16.65;;;;;;;9.40;86.52;97579.91;5138430;23;20607;-84
2024/02/27 08:40:53;;;;;;;28.27;17.13;;;;;;;9.47;86.61;97579.34;5162889;23;20200;-84
2024/02/27 08:42:56;;;;;;;23.23;16.70;;;;;;;9.46;86.00;97575.06;5137645;23;20610;-84
2024/02/27 08:44:59;;;;;;;25.57;16.77;;;;;;;9.43;86.64;97583.09;5137219;23;20587;-84
2024/02/27 08:47:03;;;;;;;22.07;15.53;;;;;;;9.51;86.95;97583.38;5135455;23;20895;-84
2024/02/27 08:49:06;;;;;;;23.73;16.57;;;;;;;9.52;86.53;97594.63;5162836;23;20583;-84
2024/02/27 08:51:10;;;;;;;25.52;16.75;;;;;;;9.60;87.40;97595.72;5138549;23;20648;-84
2024/02/27 08:53:13;;;;;;;24.40;17.10;;;;;;;9.51;86.85;97591.19;5136794;23;20723;-84
2024/02/27 08:55:18;;;;;;;26.47;17.93;;;;;;;9.50;87.59;97586.94;5162293;23;20572;-84
2024/02/27 08:57:22;;;;;;;27.27;17.07;;;;;;;9.59;86.60;97581.06;5137608;23;20573;-84
2024/02/27 08:59:25;;;;;;;27.47;17.97;;;;;;;9.60;86.81;97576.69;5163489;23;20671;-88
2024/02/27 09:01:29;;;;;;;25.17;17.70;;;;;;;9.68;87.33;97572.59;5162549;23;20610;-86
2024/02/27 09:03:34;;;;;;;28.57;18.97;;;;;;;9.75;86.25;97575.56;5137790;23;20182;-86
2024/02/27 09:05:37;;;;;;;24.63;17.03;;;;;;;9.84;86.57;97571.31;5137237;23;20659;-87
2024/02/27 09:07:41;;;;;;;25.00;17.20;;;;;;;9.84;85.84;97559.25;5161931;23;20690;-87
2024/02/27 09:09:44;;;;;;;25.80;17.20;;;;;;;9.80;85.37;97570.84;5190027;22;20581;-88
2024/02/27 09:11:48;;;;;;;26.73;18.30;;;;;;;9.91;86.50;97572.53;5160547;23;20194;-88
2024/02/27 09:13:56;;;;;;;24.40;17.95;;;;;;;9.87;85.90;97565.06;5160301;23;20576;-87
2024/02/27 09:15:58;;;;;;;26.53;17.20;;;;;;;9.91;85.90;97566.50;5162177;23;20995;-85
2024/02/27 09:18:01;;;;;;;27.13;17.70;;;;;;;9.97;86.29;97566.91;5163621;23;20572;-86
2024/02/27 09:20:07;;;;;;;25.10;18.07;;;;;;;10.08;86.56;97568.72;5137976;23;20613;-86
2024/02/27 09:22:10;;;;;;;26.27;17.97;;;;;;;10.08;86.54;97569.53;5136967;23;20601;-87
2024/02/27 09:24:13;;;;;;;28.77;19.40;;;;;;;10.10;85.77;97575.50;5163322;23;21107;-86
2024/02/27 09:26:16;;;;;;;28.47;18.87;;;;;;;10.08;85.82;97579.13;5135386;23;20584;-86
2024/02/27 09:28:19;;;;;;;24.07;17.67;;;;;;;10.06;85.58;97581.84;5162864;23;20663;-86
2024/02/27 09:30:23;;;;;;;27.33;18.23;;;;;;;10.04;85.72;97577.69;5161734;23;21111;-86
2024/02/27 09:32:26;;;;;;;28.80;19.10;;;;;;;9.96;86.69;97574.84;5135524;23;20619;-86
2024/02/27 09:34:30;;;;;;;28.47;19.40;;;;;;;10.01;86.33;97586.59;5136616;23;20587;-86
2024/02/27 09:36:33;;;;;;;29.50;19.47;;;;;;;10.02;86.49;97585.63;5137135;23;20584;-86
2024/02/27 09:38:36;;;;;;;26.85;17.90;;;;;;;10.09;86.97;97586.03;5137829;23;20584;-85